createdAt,value
2018-12-01T00:00:24.476Z,8.39
2018-12-01T00:02:52.899Z,8.27
2018-12-01T00:05:27.628Z,8.22
2018-12-01T00:07:56.543Z,8.12
2018-12-01T00:10:25.043Z,8.07
2018-12-01T00:12:53.682Z,7.99
2018-12-01T00:15:24.847Z,7.99
2018-12-01T00:17:53.870Z,7.93
2018-12-01T00:20:28.017Z,7.85
2018-12-01T00:22:56.360Z,7.70
2018-12-01T00:25:25.019Z,7.52
2018-12-01T00:27:53.626Z,7.45
2018-12-01T00:30:23.562Z,7.48
2018-12-01T00:32:53.528Z,7.44
2018-12-01T00:35:22.505Z,7.50
2018-12-01T00:37:50.915Z,7.49
2018-12-01T00:40:20.679Z,7.52
2018-12-01T00:42:49.267Z,7.51
2018-12-01T00:45:19.006Z,7.56
2018-12-01T00:47:51.878Z,7.59
2018-12-01T00:50:21.990Z,7.50
2018-12-01T00:52:51.802Z,7.47
2018-12-01T00:55:20.613Z,7.58
2018-12-01T00:57:49.095Z,7.58
2018-12-01T01:00:22.438Z,7.67
2018-12-01T01:02:55.240Z,7.76
2018-12-01T01:05:25.917Z,7.75
2018-12-01T01:07:55.775Z,7.84
2018-12-01T01:10:26.011Z,7.84
2018-12-01T01:12:54.330Z,7.97
2018-12-01T01:15:23.195Z,8.05
2018-12-01T01:17:51.873Z,8.03
2018-12-01T01:20:22.085Z,7.97
2018-12-01T01:22:50.969Z,7.94
2018-12-01T01:25:19.653Z,8.09
2018-12-01T01:27:48.037Z,8.04
2018-12-01T01:30:21.930Z,8.07
2018-12-01T01:32:52.086Z,8.06
2018-12-01T01:35:20.566Z,8.08
2018-12-01T01:37:49.498Z,8.04
2018-12-01T01:40:18.537Z,8.07
2018-12-01T01:42:46.935Z,8.08
2018-12-01T01:45:16.795Z,8.06
2018-12-01T01:47:45.802Z,7.98
2018-12-01T01:50:17.086Z,7.95
2018-12-01T01:52:46.502Z,7.95
2018-12-01T01:55:14.862Z,8.03
2018-12-01T01:57:43.345Z,8.07
2018-12-01T02:00:18.015Z,8.00
2018-12-01T02:02:47.831Z,7.99
2018-12-01T02:05:18.159Z,7.91
2018-12-01T02:07:46.583Z,7.98
2018-12-01T02:10:16.242Z,7.98
2018-12-01T02:12:44.633Z,7.94
2018-12-01T02:15:14.102Z,7.96
2018-12-01T02:17:43.134Z,7.97
2018-12-01T02:20:13.504Z,7.98
2018-12-01T02:22:41.805Z,7.94
2018-12-01T02:25:14.768Z,7.96
2018-12-01T02:27:43.918Z,7.93
2018-12-01T02:30:17.791Z,7.86
2018-12-01T02:32:46.531Z,7.89
2018-12-01T02:35:18.010Z,7.96
2018-12-01T02:37:47.077Z,7.98
2018-12-01T02:40:15.544Z,8.11
2018-12-01T02:42:44.351Z,8.12
2018-12-01T02:45:30.210Z,7.91
2018-12-01T02:47:59.256Z,8.03
2018-12-01T02:50:28.398Z,8.08
2018-12-01T02:52:59.217Z,8.11
2018-12-01T02:55:27.802Z,8.17
2018-12-01T02:57:56.284Z,8.16
2018-12-01T03:00:24.748Z,8.03
2018-12-01T03:02:53.100Z,8.00
2018-12-01T03:05:23.064Z,8.00
2018-12-01T03:07:52.699Z,7.92
2018-12-01T03:10:21.679Z,7.86
2018-12-01T03:12:52.253Z,7.81
2018-12-01T03:15:20.671Z,7.63
2018-12-01T03:17:50.845Z,7.40
2018-12-01T03:20:19.376Z,7.40
2018-12-01T03:22:47.715Z,7.39
2018-12-01T03:25:18.397Z,7.20
2018-12-01T03:27:47.917Z,7.12
2018-12-01T03:30:22.033Z,7.18
2018-12-01T03:32:50.995Z,7.28
2018-12-01T03:35:20.490Z,7.37
2018-12-01T03:37:49.315Z,7.44
2018-12-01T03:40:19.358Z,7.45
2018-12-01T03:42:47.963Z,7.49
2018-12-01T03:45:18.494Z,7.42
2018-12-01T03:47:47.166Z,7.57
2018-12-01T03:50:23.110Z,7.60
2018-12-01T03:52:55.941Z,7.69
2018-12-01T03:55:32.181Z,7.69
2018-12-01T03:58:01.541Z,7.60
2018-12-01T04:00:31.584Z,7.57
2018-12-01T04:03:01.655Z,7.62
2018-12-01T04:05:30.298Z,7.67
2018-12-01T04:07:58.768Z,7.65
2018-12-01T04:10:27.209Z,7.54
2018-12-01T04:12:55.832Z,7.47
2018-12-01T04:15:25.168Z,7.40
2018-12-01T04:17:53.553Z,7.33
2018-12-01T04:20:21.975Z,7.29
2018-12-01T04:22:50.743Z,7.25
2018-12-01T04:25:19.669Z,7.29
2018-12-01T04:27:48.063Z,7.31
2018-12-01T04:30:22.961Z,7.24
2018-12-01T04:32:51.581Z,7.24
2018-12-01T04:35:23.014Z,7.17
2018-12-01T04:37:53.793Z,7.20
2018-12-01T04:40:22.458Z,7.21
2018-12-01T04:42:50.917Z,7.16
2018-12-01T04:45:19.416Z,7.23
2018-12-01T04:47:48.394Z,7.30
2018-12-01T04:50:18.222Z,7.47
2018-12-01T04:52:48.118Z,7.47
2018-12-01T04:55:18.549Z,7.37
2018-12-01T04:57:47.087Z,7.28
2018-12-01T05:00:18.382Z,7.14
2018-12-01T05:02:47.218Z,7.02
2018-12-01T05:05:19.780Z,6.96
2018-12-01T05:07:48.466Z,6.97
2018-12-01T05:10:18.457Z,6.91
2018-12-01T05:12:46.806Z,6.89
2018-12-01T05:15:17.540Z,6.97
2018-12-01T05:17:46.554Z,6.95
2018-12-01T05:20:20.609Z,6.93
2018-12-01T05:22:49.764Z,6.81
2018-12-01T05:25:19.508Z,6.74
2018-12-01T05:27:48.236Z,6.72
2018-12-01T05:30:16.846Z,6.61
2018-12-01T05:32:45.499Z,6.54
2018-12-01T05:35:18.927Z,6.39
2018-12-01T05:37:47.203Z,6.28
2018-12-01T05:40:15.508Z,6.20
2018-12-01T05:42:44.094Z,6.11
2018-12-01T05:45:19.234Z,6.10
2018-12-01T05:47:47.854Z,6.04
2018-12-01T05:50:28.022Z,5.96
2018-12-01T05:52:57.139Z,5.97
2018-12-01T05:55:25.624Z,6.00
2018-12-01T05:57:54.020Z,5.85
2018-12-01T06:00:22.424Z,5.82
2018-12-01T06:02:51.986Z,5.74
2018-12-01T06:05:20.332Z,5.73
2018-12-01T06:07:49.281Z,5.87
2018-12-01T06:10:19.863Z,6.01
2018-12-01T06:12:49.880Z,5.97
2018-12-01T06:15:19.838Z,6.07
2018-12-01T06:17:48.294Z,6.08
2018-12-01T06:20:19.571Z,6.13
2018-12-01T06:22:47.848Z,6.10
2018-12-01T06:25:18.227Z,6.07
2018-12-01T06:27:46.911Z,6.06
2018-12-01T06:30:17.936Z,6.02
2018-12-01T06:32:47.462Z,6.03
2018-12-01T06:35:16.283Z,6.05
2018-12-01T06:37:44.657Z,6.03
2018-12-01T06:40:18.258Z,6.01
2018-12-01T06:42:46.931Z,5.97
2018-12-01T06:45:16.179Z,6.04
2018-12-01T06:47:44.783Z,6.04
2018-12-01T06:50:20.552Z,6.07
2018-12-01T06:52:49.621Z,6.07
2018-12-01T06:55:18.258Z,6.07
2018-12-01T06:57:47.297Z,6.00
2018-12-01T07:00:19.117Z,6.00
2018-12-01T07:02:48.186Z,6.01
2018-12-01T07:05:17.823Z,6.03
2018-12-01T07:07:46.181Z,5.98
2018-12-01T07:10:16.843Z,5.94
2018-12-01T07:12:49.166Z,5.95
2018-12-01T07:15:19.350Z,5.97
2018-12-01T07:17:47.985Z,5.98
2018-12-01T07:20:16.940Z,5.93
2018-12-01T07:22:45.323Z,6.01
2018-12-01T07:25:13.634Z,6.01
2018-12-01T07:27:42.120Z,6.01
2018-12-01T07:30:14.489Z,6.02
2018-12-01T07:32:44.026Z,6.00
2018-12-01T07:35:12.407Z,6.04
2018-12-01T07:37:41.328Z,6.07
2018-12-01T07:40:15.029Z,6.15
2018-12-01T07:42:43.866Z,6.19
2018-12-01T07:45:14.113Z,6.15
2018-12-01T07:47:42.530Z,6.24
2018-12-01T07:50:12.129Z,6.29
2018-12-01T07:52:41.466Z,6.28
2018-12-01T07:55:09.891Z,6.24
2018-12-01T07:57:38.335Z,6.30
2018-12-01T08:00:12.203Z,6.35
2018-12-01T08:02:41.406Z,6.38
2018-12-01T08:05:11.107Z,6.45
2018-12-01T08:07:39.798Z,6.56
2018-12-01T08:10:12.786Z,6.64
2018-12-01T08:12:41.607Z,6.70
2018-12-01T08:15:15.686Z,6.78
2018-12-01T08:17:45.130Z,6.69
2018-12-01T08:20:15.203Z,6.70
2018-12-01T08:22:43.650Z,6.84
2018-12-01T08:25:15.984Z,6.76
2018-12-01T08:27:45.633Z,6.83
2018-12-01T08:30:25.889Z,6.99
2018-12-01T08:32:54.248Z,7.28
2018-12-01T08:35:23.495Z,7.27
2018-12-01T08:37:52.637Z,7.42
2018-12-01T08:40:23.171Z,7.53
2018-12-01T08:42:51.525Z,7.52
2018-12-01T08:45:20.266Z,7.57
2018-12-01T08:47:48.642Z,7.57
2018-12-01T08:50:21.740Z,7.71
2018-12-01T08:52:57.173Z,7.95
2018-12-01T08:55:25.608Z,8.02
2018-12-01T08:57:54.292Z,8.10
2018-12-01T09:00:27.434Z,8.19
2018-12-01T09:03:00.642Z,8.27
2018-12-01T09:05:28.969Z,8.26
2018-12-01T09:07:57.837Z,8.20
2018-12-01T09:10:26.222Z,8.12
2018-12-01T09:12:54.555Z,8.13
2018-12-01T09:15:22.954Z,8.15
2018-12-01T09:17:51.571Z,8.18
2018-12-01T09:20:19.887Z,8.28
2018-12-01T09:22:48.317Z,8.17
2018-12-01T09:25:18.542Z,8.37
2018-12-01T09:27:47.458Z,8.52
2018-12-01T09:30:28.298Z,8.79
2018-12-01T09:32:57.411Z,8.85
2018-12-01T09:35:25.312Z,9.23
2018-12-01T09:37:55.179Z,9.50
2018-12-01T09:40:24.209Z,9.48
2018-12-01T09:42:52.675Z,9.33
2018-12-01T09:45:23.008Z,9.05
2018-12-01T09:47:53.653Z,9.23
2018-12-01T09:50:22.240Z,9.25
2018-12-01T09:52:53.743Z,9.34
2018-12-01T09:55:28.951Z,9.44
2018-12-01T09:57:58.782Z,9.64
2018-12-01T10:00:32.537Z,9.87
2018-12-01T10:03:03.599Z,9.95
2018-12-01T10:05:33.718Z,10.00
2018-12-01T10:08:02.246Z,10.08
2018-12-01T10:10:30.958Z,10.30
2018-12-01T10:12:59.332Z,10.73
2018-12-01T10:15:33.062Z,10.61
2018-12-01T10:18:01.722Z,10.51
2018-12-01T10:20:33.146Z,10.64
2018-12-01T10:23:03.890Z,10.54
2018-12-01T10:25:32.370Z,10.96
2018-12-01T10:28:01.112Z,10.92
2018-12-01T10:30:29.806Z,10.91
2018-12-01T10:32:58.290Z,11.04
2018-12-01T10:35:27.370Z,10.98
2018-12-01T10:38:02.184Z,10.40
2018-12-01T10:40:30.981Z,10.25
2018-12-01T10:42:59.341Z,10.22
2018-12-01T10:45:28.221Z,10.18
2018-12-01T10:47:56.842Z,10.39
2018-12-01T10:50:25.181Z,10.41
2018-12-01T10:52:54.843Z,10.44
2018-12-01T10:55:30.554Z,10.35
2018-12-01T10:58:16.789Z,10.78
2018-12-01T11:00:52.541Z,11.03
2018-12-01T11:03:27.878Z,11.21
2018-12-01T11:05:58.023Z,11.51
2018-12-01T11:08:26.478Z,11.55
2018-12-01T11:10:55.340Z,11.91
2018-12-01T11:13:23.511Z,11.95
2018-12-01T11:15:51.990Z,11.98
2018-12-01T11:18:20.743Z,11.93
2018-12-01T11:20:49.221Z,12.10
2018-12-01T11:23:17.672Z,12.00
2018-12-01T11:25:46.422Z,12.31
2018-12-01T11:28:15.098Z,11.97
2018-12-01T11:30:43.419Z,11.92
2018-12-01T11:33:11.796Z,12.04
2018-12-01T11:35:40.286Z,12.09
2018-12-01T11:38:09.153Z,11.73
2018-12-01T11:40:37.793Z,11.47
2018-12-01T11:43:08.466Z,11.54
2018-12-01T11:45:36.797Z,11.78
2018-12-01T11:48:06.071Z,11.47
2018-12-01T11:50:34.703Z,11.71
2018-12-01T11:53:03.774Z,11.71
2018-12-01T11:55:32.242Z,11.65
2018-12-01T11:58:01.688Z,12.06
2018-12-01T12:00:30.444Z,11.99
2018-12-01T12:02:59.598Z,11.96
2018-12-01T12:05:28.008Z,12.04
2018-12-01T12:08:13.392Z,12.01
2018-12-01T12:10:41.891Z,11.91
2018-12-01T12:13:10.798Z,11.96
2018-12-01T12:15:39.169Z,12.01
2018-12-01T12:18:07.794Z,11.97
2018-12-01T12:20:36.438Z,12.01
2018-12-01T12:23:05.941Z,12.37
2018-12-01T12:25:34.635Z,12.30
2018-12-01T12:28:03.252Z,12.43
2018-12-01T12:30:31.624Z,12.54
2018-12-01T12:33:00.087Z,12.22
2018-12-01T12:35:28.305Z,12.27
2018-12-01T12:37:56.672Z,12.03
2018-12-01T12:40:27.010Z,12.07
2018-12-01T12:42:57.050Z,12.39
2018-12-01T12:45:25.516Z,12.50
2018-12-01T12:47:54.210Z,12.67
2018-12-01T12:50:22.966Z,12.96
2018-12-01T12:52:53.924Z,13.39
2018-12-01T12:55:26.766Z,13.55
2018-12-01T12:57:55.139Z,13.58
2018-12-01T13:00:24.946Z,13.44
2018-12-01T13:03:04.566Z,13.37
2018-12-01T13:05:42.858Z,13.29
2018-12-01T13:08:13.630Z,13.11
2018-12-01T13:10:42.041Z,14.16
2018-12-01T13:13:10.597Z,16.79
2018-12-01T13:15:40.037Z,18.39
2018-12-01T13:18:12.891Z,16.89
2018-12-01T13:20:43.227Z,14.99
2018-12-01T13:23:11.636Z,14.00
2018-12-01T13:25:41.115Z,13.56
2018-12-01T13:28:17.892Z,13.06
2018-12-01T13:30:51.292Z,12.65
2018-12-01T13:33:20.061Z,12.53
2018-12-01T13:35:48.618Z,12.56
2018-12-01T13:38:17.464Z,12.61
2018-12-01T13:40:45.862Z,12.72
2018-12-01T13:43:14.226Z,12.55
2018-12-01T13:45:42.672Z,12.55
2018-12-01T13:48:12.106Z,12.61
2018-12-01T13:50:40.433Z,12.39
2018-12-01T13:53:11.506Z,12.53
2018-12-01T13:55:40.183Z,12.53
2018-12-01T13:58:08.597Z,12.61
2018-12-01T14:00:37.359Z,12.64
2018-12-01T14:03:06.527Z,12.89
2018-12-01T14:05:34.899Z,12.60
2018-12-01T14:08:03.387Z,12.08
2018-12-01T14:10:32.430Z,12.03
2018-12-01T14:13:08.429Z,11.85
2018-12-01T14:15:36.799Z,11.79
2018-12-01T14:18:06.375Z,11.97
2018-12-01T14:20:34.842Z,12.69
2018-12-01T14:23:03.303Z,12.81
2018-12-01T14:25:31.794Z,12.51
2018-12-01T14:28:04.115Z,12.00
2018-12-01T14:30:32.772Z,11.72
2018-12-01T14:33:01.128Z,11.52
2018-12-01T14:35:33.682Z,11.41
2018-12-01T14:38:18.640Z,11.52
2018-12-01T14:40:49.818Z,11.38
2018-12-01T14:43:18.212Z,11.43
2018-12-01T14:45:48.714Z,11.40
2018-12-01T14:48:17.315Z,11.33
2018-12-01T14:50:48.523Z,11.27
2018-12-01T14:53:16.634Z,11.22
2018-12-01T14:55:45.019Z,11.20
2018-12-01T14:58:13.459Z,11.12
2018-12-01T15:00:41.761Z,11.08
2018-12-01T15:03:10.272Z,11.03
2018-12-01T15:05:40.236Z,10.98
2018-12-01T15:08:08.732Z,11.00
2018-12-01T15:10:37.336Z,10.97
2018-12-01T15:13:06.394Z,10.85
2018-12-01T15:15:34.740Z,10.94
2018-12-01T15:18:03.539Z,10.84
2018-12-01T15:20:32.299Z,10.89
2018-12-01T15:23:00.943Z,10.80
2018-12-01T15:25:31.115Z,10.73
2018-12-01T15:27:59.752Z,10.66
2018-12-01T15:30:29.368Z,10.66
2018-12-01T15:33:16.662Z,10.70
2018-12-01T15:35:46.687Z,10.63
2018-12-01T15:38:15.866Z,10.66
2018-12-01T15:40:46.789Z,10.69
2018-12-01T15:43:16.979Z,10.69
2018-12-01T15:45:44.508Z,10.67
2018-12-01T15:48:13.032Z,10.68
2018-12-01T15:50:41.529Z,10.71
2018-12-01T15:53:13.081Z,10.60
2018-12-01T15:55:43.198Z,10.56
2018-12-01T15:58:10.582Z,10.59
2018-12-01T16:00:40.148Z,10.52
2018-12-01T16:03:08.624Z,10.40
2018-12-01T16:05:37.053Z,10.36
2018-12-01T16:08:07.072Z,10.26
2018-12-01T16:10:35.377Z,10.21
2018-12-01T16:13:10.189Z,10.08
2018-12-01T16:16:10.661Z,10.08
2018-12-01T16:18:39.023Z,10.04
2018-12-01T16:21:07.447Z,10.01
2018-12-01T16:23:35.730Z,9.98
2018-12-01T16:26:04.366Z,9.81
2018-12-01T16:28:32.836Z,9.74
2018-12-01T16:31:01.277Z,9.70
2018-12-01T16:33:29.793Z,9.66
2018-12-01T16:35:58.747Z,9.70
2018-12-01T16:38:29.837Z,9.71
2018-12-01T16:41:02.999Z,9.60
2018-12-01T16:43:33.607Z,9.45
2018-12-01T16:46:02.027Z,9.48
2018-12-01T16:48:37.568Z,9.33
2018-12-01T16:51:06.498Z,9.41
2018-12-01T16:53:34.876Z,9.38
2018-12-01T16:56:03.618Z,9.29
2018-12-01T16:58:31.836Z,9.29
2018-12-01T17:01:00.281Z,9.26
2018-12-01T17:03:28.619Z,9.26
2018-12-01T17:05:59.162Z,9.16
2018-12-01T17:08:27.758Z,9.19
2018-12-01T17:10:56.280Z,9.13
2018-12-01T17:13:24.667Z,9.05
2018-12-01T17:15:53.030Z,9.11
2018-12-01T17:18:21.286Z,9.12
2018-12-01T17:20:49.716Z,9.06
2018-12-01T17:23:18.465Z,9.12
2018-12-01T17:25:46.737Z,9.16
2018-12-01T17:28:17.577Z,9.08
2018-12-01T17:30:45.970Z,9.07
2018-12-01T17:33:14.374Z,9.00
2018-12-01T17:35:42.747Z,8.98
2018-12-01T17:38:13.706Z,8.97
2018-12-01T17:41:00.008Z,8.91
2018-12-01T17:43:38.330Z,8.93
2018-12-01T17:46:07.074Z,8.81
2018-12-01T17:48:35.682Z,8.79
2018-12-01T17:51:04.256Z,8.81
2018-12-01T17:53:32.577Z,8.78
2018-12-01T17:56:00.961Z,8.77
2018-12-01T17:58:29.289Z,8.78
2018-12-01T18:00:57.959Z,8.71
2018-12-01T18:03:26.293Z,8.70
2018-12-01T18:05:54.941Z,8.65
2018-12-01T18:08:24.281Z,8.74
2018-12-01T18:10:54.261Z,8.63
2018-12-01T18:13:23.671Z,8.63
2018-12-01T18:15:52.046Z,8.62
2018-12-01T18:18:20.419Z,8.61
2018-12-01T18:20:48.768Z,8.71
2018-12-01T18:23:18.931Z,8.73
2018-12-01T18:25:49.522Z,8.75
2018-12-01T18:28:19.894Z,8.72
2018-12-01T18:30:48.273Z,8.70
2018-12-01T18:33:23.599Z,8.70
2018-12-01T18:35:51.996Z,8.73
2018-12-01T18:38:20.299Z,8.76
2018-12-01T18:40:48.874Z,8.80
2018-12-01T18:43:17.605Z,8.82
2018-12-01T18:45:50.011Z,8.73
2018-12-01T18:48:18.366Z,8.67
2018-12-01T18:50:47.176Z,8.65
2018-12-01T18:53:15.815Z,8.67
2018-12-01T18:55:49.831Z,8.72
2018-12-01T18:58:18.211Z,8.75
2018-12-01T19:00:52.227Z,8.87
2018-12-01T19:03:23.063Z,8.81
2018-12-01T19:05:51.362Z,8.79
2018-12-01T19:08:19.647Z,8.81
2018-12-01T19:10:48.334Z,8.71
2018-12-01T19:13:16.679Z,8.78
2018-12-01T19:15:45.257Z,8.73
2018-12-01T19:18:14.321Z,8.74
2018-12-01T19:20:42.701Z,8.74
2018-12-01T19:23:13.836Z,8.75
2018-12-01T19:25:43.516Z,8.73
2018-12-01T19:28:11.939Z,8.79
2018-12-01T19:30:40.273Z,8.74
2018-12-01T19:33:18.477Z,8.73
2018-12-01T19:35:48.610Z,8.78
2018-12-01T19:38:24.670Z,8.72
2018-12-01T19:40:53.327Z,8.66
2018-12-01T19:43:21.629Z,8.70
2018-12-01T19:45:49.946Z,8.79
2018-12-01T19:48:19.245Z,8.77
2018-12-01T19:50:47.556Z,8.67
2018-12-01T19:53:17.858Z,8.78
2018-12-01T19:55:48.645Z,8.70
2018-12-01T19:58:22.331Z,8.74
2018-12-01T20:00:55.423Z,8.67
2018-12-01T20:03:25.424Z,8.68
2018-12-01T20:05:54.067Z,8.74
2018-12-01T20:08:23.183Z,8.75
2018-12-01T20:10:54.731Z,8.76
2018-12-01T20:13:37.427Z,8.83
2018-12-01T20:16:31.613Z,8.83
2018-12-01T20:19:00.610Z,8.86
2018-12-01T20:21:31.771Z,8.86
2018-12-01T20:24:00.233Z,8.82
2018-12-01T20:26:28.657Z,8.94
2018-12-01T20:28:57.245Z,8.94
2018-12-01T20:31:25.579Z,8.95
2018-12-01T20:33:56.539Z,8.83
2018-12-01T20:36:41.833Z,8.84
2018-12-01T20:39:28.363Z,8.84
2018-12-01T20:41:56.768Z,8.91
2018-12-01T20:44:25.869Z,8.97
2018-12-01T20:46:54.433Z,8.98
2018-12-01T20:49:23.134Z,8.95
2018-12-01T20:51:52.545Z,8.96
2018-12-01T20:54:36.126Z,8.87
2018-12-01T20:57:17.146Z,8.90
2018-12-01T20:59:45.416Z,8.88
2018-12-01T21:02:14.058Z,8.76
2018-12-01T21:04:42.415Z,8.72
2018-12-01T21:07:10.790Z,8.70
2018-12-01T21:09:39.477Z,8.80
2018-12-01T21:12:10.058Z,8.84
2018-12-01T21:14:38.939Z,8.80
2018-12-01T21:17:14.256Z,8.81
2018-12-01T21:19:42.921Z,8.73
2018-12-01T21:22:11.246Z,8.84
2018-12-01T21:24:39.708Z,8.80
2018-12-01T21:27:08.436Z,8.75
2018-12-01T21:29:37.426Z,8.85
2018-12-01T21:32:06.871Z,8.82
2018-12-01T21:34:35.328Z,8.85
2018-12-01T21:37:04.476Z,8.89
2018-12-01T21:39:32.874Z,8.89
2018-12-01T21:42:01.708Z,8.94
2018-12-01T21:44:29.991Z,8.88
2018-12-01T21:46:58.410Z,8.96
2018-12-01T21:49:26.769Z,9.02
2018-12-01T21:51:55.392Z,8.96
2018-12-01T21:54:24.492Z,8.95
2018-12-01T21:56:52.776Z,9.01
2018-12-01T21:59:21.873Z,9.02
2018-12-01T22:01:50.274Z,8.99
2018-12-01T22:04:20.021Z,8.97
2018-12-01T22:06:47.464Z,9.08
2018-12-01T22:09:16.308Z,9.04
2018-12-01T22:11:45.476Z,9.03
2018-12-01T22:14:14.806Z,9.16
2018-12-01T22:16:43.690Z,9.08
2018-12-01T22:19:11.913Z,9.02
2018-12-01T22:21:40.286Z,9.00
2018-12-01T22:24:09.059Z,9.09
2018-12-01T22:26:37.412Z,9.21
2018-12-01T22:29:06.422Z,9.11
2018-12-01T22:31:34.740Z,9.08
2018-12-01T22:34:03.004Z,9.17
2018-12-01T22:36:31.357Z,9.21
2018-12-01T22:38:59.740Z,9.31
2018-12-01T22:41:27.965Z,9.30
2018-12-01T22:43:56.330Z,9.18
2018-12-01T22:46:25.013Z,9.29
2018-12-01T22:48:53.784Z,9.34
2018-12-01T22:51:22.387Z,9.44
2018-12-01T22:53:50.892Z,9.39
2018-12-01T22:56:19.269Z,9.37
2018-12-01T22:58:47.627Z,9.31
2018-12-01T23:01:15.923Z,9.35
2018-12-01T23:03:44.407Z,9.42
2018-12-01T23:06:12.739Z,9.39
2018-12-01T23:08:41.143Z,9.35
2018-12-01T23:11:09.562Z,9.37
2018-12-01T23:13:38.039Z,9.40
2018-12-01T23:16:06.531Z,9.34
2018-12-01T23:18:34.935Z,9.24
2018-12-01T23:21:03.726Z,9.30
2018-12-01T23:23:32.143Z,9.35
2018-12-01T23:26:00.384Z,9.37
2018-12-01T23:28:28.834Z,9.37
2018-12-01T23:30:57.958Z,9.29
2018-12-01T23:33:28.405Z,9.27
2018-12-01T23:35:56.772Z,9.43
2018-12-01T23:38:25.145Z,9.34
2018-12-01T23:40:53.483Z,9.30
2018-12-01T23:43:21.732Z,9.34
2018-12-01T23:45:50.485Z,9.34
2018-12-01T23:48:18.870Z,9.22
2018-12-01T23:50:55.336Z,9.27
2018-12-01T23:53:24.982Z,9.26
2018-12-01T23:55:53.570Z,9.28
2018-12-01T23:58:21.909Z,9.28
